createdAt,value
2018-07-16T00:01:55.123Z,22.30
2018-07-16T00:06:58.394Z,21.63
2018-07-16T00:12:01.752Z,117.07
2018-07-16T00:17:05.060Z,99.60
2018-07-16T00:22:08.476Z,45.23
2018-07-16T00:27:11.805Z,15.80
2018-07-16T00:32:15.125Z,14.17
2018-07-16T00:37:18.505Z,15.47
2018-07-16T00:42:21.803Z,12.27
2018-07-16T00:47:25.082Z,13.80
2018-07-16T00:52:28.361Z,13.07
2018-07-16T00:57:31.659Z,16.50
2018-07-16T01:02:34.953Z,16.63
2018-07-16T01:07:38.233Z,14.73
2018-07-16T01:12:41.515Z,16.10
2018-07-16T01:17:44.803Z,14.97
2018-07-16T01:22:48.107Z,17.87
2018-07-16T01:27:51.371Z,18.70
2018-07-16T01:32:55.096Z,17.80
2018-07-16T01:37:58.379Z,19.57
2018-07-16T01:43:01.416Z,17.00
2018-07-16T01:48:04.699Z,15.17
2018-07-16T01:53:08.199Z,15.13
2018-07-16T01:58:11.470Z,15.50
2018-07-16T02:03:14.776Z,16.67
2018-07-16T02:08:18.127Z,13.93
2018-07-16T02:13:21.752Z,14.67
2018-07-16T02:18:25.078Z,19.57
2018-07-16T02:23:28.350Z,16.73
2018-07-16T02:28:31.624Z,16.37
2018-07-16T02:33:34.897Z,18.17
2018-07-16T02:38:38.696Z,19.10
2018-07-16T02:43:42.216Z,18.83
2018-07-16T02:48:45.512Z,14.73
2018-07-16T02:53:48.810Z,15.53
2018-07-16T02:58:52.099Z,15.20
2018-07-16T03:03:57.166Z,15.67
2018-07-16T03:09:00.582Z,13.93
2018-07-16T03:14:03.893Z,15.23
2018-07-16T03:19:07.204Z,19.50
2018-07-16T03:24:10.484Z,15.77
2018-07-16T03:29:13.770Z,17.57
2018-07-16T03:34:17.042Z,14.13
2018-07-16T03:39:20.322Z,16.43
2018-07-16T03:44:23.622Z,15.90
2018-07-16T03:49:26.908Z,16.00
2018-07-16T03:54:30.285Z,15.53
2018-07-16T03:59:33.485Z,14.97
2018-07-16T04:04:36.758Z,17.60
2018-07-16T04:09:40.011Z,17.47
2018-07-16T04:14:43.286Z,17.10
2018-07-16T04:19:46.587Z,17.53
2018-07-16T04:24:49.883Z,18.27
2018-07-16T04:29:53.136Z,17.50
2018-07-16T04:34:56.415Z,18.20
2018-07-16T04:39:59.722Z,16.33
2018-07-16T04:45:05.975Z,21.03
2018-07-16T04:50:11.291Z,17.40
2018-07-16T04:55:16.599Z,16.07
2018-07-16T05:00:22.177Z,17.00
2018-07-16T05:05:25.542Z,17.33
2018-07-16T05:10:28.839Z,19.83
2018-07-16T05:15:32.115Z,18.37
2018-07-16T05:20:35.405Z,15.50
2018-07-16T05:25:38.678Z,14.07
2018-07-16T05:30:41.944Z,15.17
2018-07-16T05:35:45.219Z,14.83
2018-07-16T05:40:48.503Z,12.60
2018-07-16T05:45:51.780Z,12.03
2018-07-16T05:50:55.054Z,11.63
2018-07-16T06:01:08.061Z,10.90
2018-07-16T06:06:11.363Z,12.33
2018-07-16T06:11:14.724Z,13.07
2018-07-16T06:16:18.279Z,11.17
2018-07-16T06:21:21.547Z,10.03
2018-07-16T06:26:25.095Z,12.57
2018-07-16T06:31:29.078Z,11.53
2018-07-16T06:36:32.409Z,10.27
2018-07-16T06:41:36.280Z,11.87
2018-07-16T06:46:40.607Z,14.27
2018-07-16T06:51:44.143Z,11.47
2018-07-16T06:56:48.503Z,11.57
2018-07-16T07:01:52.028Z,12.87
2018-07-16T07:06:55.961Z,14.57
2018-07-16T07:12:01.300Z,18.00
2018-07-16T07:17:05.083Z,12.70
2018-07-16T07:22:08.352Z,12.57
2018-07-16T07:27:11.752Z,12.40
2018-07-16T07:32:16.619Z,12.23
2018-07-16T07:37:20.522Z,11.80
2018-07-16T07:42:24.514Z,13.70
2018-07-16T07:47:27.778Z,11.27
2018-07-16T07:52:31.099Z,12.23
2018-07-16T07:57:34.383Z,12.30
2018-07-16T08:02:37.739Z,11.73
2018-07-16T08:07:41.015Z,14.73
2018-07-16T08:12:45.203Z,14.50
2018-07-16T08:17:49.681Z,12.00
2018-07-16T08:22:52.965Z,11.97
2018-07-16T08:27:56.600Z,11.97
2018-07-16T08:33:01.464Z,10.73
2018-07-16T08:38:05.285Z,11.67
2018-07-16T08:43:09.243Z,10.27
2018-07-16T08:48:13.439Z,11.43
2018-07-16T08:53:17.437Z,11.97
2018-07-16T08:58:20.983Z,11.83
2018-07-16T09:03:24.910Z,9.87
2018-07-16T09:08:28.756Z,9.65
2018-07-16T09:13:32.813Z,9.30
2018-07-16T09:18:39.595Z,9.88
2018-07-16T09:23:43.422Z,9.83
2018-07-16T09:28:47.394Z,9.83
2018-07-16T09:33:51.180Z,8.90
2018-07-16T09:38:55.848Z,7.95
2018-07-16T09:43:59.644Z,9.53
2018-07-16T09:49:03.207Z,9.93
2018-07-16T09:54:07.468Z,9.13
2018-07-16T09:59:11.100Z,9.55
2018-07-16T10:04:15.511Z,9.05
2018-07-16T10:09:20.514Z,8.93
2018-07-16T10:14:24.980Z,9.00
2018-07-16T10:19:29.974Z,7.80
2018-07-16T10:24:36.356Z,8.68
2018-07-16T10:29:40.782Z,5.70
2018-07-16T10:34:45.929Z,6.55
2018-07-16T10:39:50.313Z,5.60
2018-07-16T10:44:54.906Z,5.87
2018-07-16T10:50:00.276Z,5.62
2018-07-16T10:55:03.866Z,6.30
2018-07-16T11:00:09.201Z,6.08
2018-07-16T11:05:12.757Z,6.80
2018-07-16T11:10:16.032Z,6.28
2018-07-16T11:15:19.316Z,6.85
2018-07-16T11:20:22.588Z,5.78
2018-07-16T11:25:27.604Z,5.30
2018-07-16T11:30:32.561Z,6.70
2018-07-16T11:35:37.459Z,7.15
2018-07-16T11:40:42.389Z,6.27
2018-07-16T11:45:46.634Z,6.90
2018-07-16T11:50:50.098Z,8.30
2018-07-16T11:55:53.098Z,13.30
2018-07-16T12:00:56.394Z,10.63
2018-07-16T12:06:00.294Z,10.67
2018-07-16T12:11:05.121Z,8.80
2018-07-16T12:16:10.218Z,9.93
2018-07-16T12:21:14.952Z,11.03
2018-07-16T12:26:20.185Z,8.50
2018-07-16T12:31:24.829Z,13.23
2018-07-16T12:36:28.220Z,5.80
2018-07-16T12:41:32.643Z,4.97
2018-07-16T12:46:37.580Z,4.87
2018-07-16T12:51:41.603Z,5.43
2018-07-16T12:56:45.656Z,5.53
2018-07-16T13:01:49.009Z,4.20
2018-07-16T13:06:54.230Z,6.30
2018-07-16T13:11:58.414Z,8.07
2018-07-16T13:17:03.567Z,8.00
2018-07-16T13:22:09.766Z,4.70
2018-07-16T13:27:14.794Z,4.90
2018-07-16T13:32:20.134Z,4.27
2018-07-16T13:37:25.574Z,4.87
2018-07-16T13:42:32.160Z,5.13
2018-07-16T13:47:38.172Z,3.87
2018-07-16T13:52:43.196Z,4.87
2018-07-16T13:57:48.668Z,5.03
2018-07-16T14:02:54.194Z,5.63
2018-07-16T14:07:58.629Z,5.95
2018-07-16T14:13:02.739Z,6.10
2018-07-16T14:18:08.080Z,3.98
2018-07-16T14:23:11.514Z,4.03
2018-07-16T14:28:15.270Z,3.70
2018-07-16T14:33:18.911Z,3.20
2018-07-16T14:38:25.488Z,4.05
2018-07-16T14:43:31.658Z,4.10
2018-07-16T14:48:37.135Z,4.83
2018-07-16T14:53:42.055Z,4.28
2018-07-16T14:58:47.160Z,4.42
2018-07-16T15:03:52.865Z,3.90
2018-07-16T15:08:56.811Z,3.58
2018-07-16T15:14:02.708Z,3.35
2018-07-16T15:19:09.834Z,3.92
2018-07-16T15:24:13.216Z,2.80
2018-07-16T15:29:16.628Z,3.10
2018-07-16T15:34:20.144Z,3.92
2018-07-16T15:39:23.519Z,3.22
2018-07-16T15:44:26.840Z,3.87
2018-07-16T15:49:29.824Z,3.47
2018-07-16T15:54:33.227Z,3.50
2018-07-16T15:59:36.536Z,2.45
2018-07-16T16:04:39.890Z,3.75
2018-07-16T16:09:43.174Z,3.40
2018-07-16T16:14:46.191Z,3.15
2018-07-16T16:19:50.443Z,2.93
2018-07-16T16:24:54.307Z,3.12
2018-07-16T16:29:58.918Z,3.13
2018-07-16T16:35:02.944Z,2.97
2018-07-16T16:40:07.296Z,3.93
2018-07-16T16:45:11.188Z,3.53
2018-07-16T16:50:14.713Z,4.00
2018-07-16T16:55:18.240Z,3.50
2018-07-16T17:00:22.416Z,4.10
2018-07-16T17:05:25.886Z,2.93
2018-07-16T17:10:29.773Z,3.50
2018-07-16T17:15:32.810Z,3.87
2018-07-16T17:20:35.821Z,3.97
2018-07-16T17:25:39.112Z,3.50
2018-07-16T17:30:42.125Z,3.80
2018-07-16T17:35:45.733Z,3.70
2018-07-16T17:40:49.015Z,4.03
2018-07-16T17:45:52.106Z,3.60
2018-07-16T17:50:55.459Z,4.43
2018-07-16T17:55:59.011Z,4.07
2018-07-16T18:01:02.339Z,4.33
2018-07-16T18:06:05.621Z,4.13
2018-07-16T18:11:08.625Z,4.27
2018-07-16T18:16:11.792Z,3.87
2018-07-16T18:21:15.428Z,4.23
2018-07-16T18:26:18.644Z,4.50
2018-07-16T18:31:21.654Z,4.40
2018-07-16T18:36:24.890Z,5.60
2018-07-16T18:41:29.181Z,5.37
2018-07-16T18:46:33.054Z,4.67
2018-07-16T18:51:37.439Z,5.37
2018-07-16T18:56:42.010Z,5.53
2018-07-16T19:01:47.525Z,4.43
2018-07-16T19:06:50.529Z,4.77
2018-07-16T19:11:55.737Z,5.30
2018-07-16T19:16:59.445Z,6.20
2018-07-16T19:22:04.593Z,7.20
2018-07-16T19:27:09.681Z,8.03
2018-07-16T19:32:14.747Z,5.23
2018-07-16T19:37:18.048Z,5.20
2018-07-16T19:42:24.846Z,5.77
2018-07-16T19:47:28.114Z,4.77
2018-07-16T19:52:31.504Z,5.37
2018-07-16T19:57:34.866Z,11.40
2018-07-16T20:02:40.867Z,7.77
2018-07-16T20:07:44.120Z,8.17
2018-07-16T20:12:47.125Z,7.27
2018-07-16T20:17:52.739Z,6.23
2018-07-16T20:22:56.814Z,5.90
2018-07-16T20:28:00.027Z,6.33
2018-07-16T20:33:05.405Z,8.97
2018-07-16T20:38:10.488Z,6.93
2018-07-16T20:43:15.956Z,7.50
2018-07-16T20:48:20.949Z,8.90
2018-07-16T20:53:27.845Z,9.37
2018-07-16T20:58:31.895Z,6.90
2018-07-16T21:03:36.175Z,6.90
2018-07-16T21:08:39.811Z,7.20
2018-07-16T21:13:42.805Z,6.83
2018-07-16T21:18:45.870Z,9.30
2018-07-16T21:23:49.106Z,7.50
2018-07-16T21:28:52.371Z,7.57
2018-07-16T21:33:55.482Z,7.77
2018-07-16T21:38:58.807Z,8.83
2018-07-16T21:44:02.198Z,7.53
2018-07-16T21:49:05.934Z,9.90
2018-07-16T21:54:09.518Z,8.67
2018-07-16T21:59:13.186Z,9.83
2018-07-16T22:04:17.073Z,9.63
2018-07-16T22:09:20.601Z,8.87
2018-07-16T22:14:24.321Z,8.17
2018-07-16T22:19:27.834Z,9.73
2018-07-16T22:24:30.833Z,9.27
2018-07-16T22:29:34.471Z,8.90
2018-07-16T22:34:37.777Z,10.27
2018-07-16T22:39:41.063Z,10.10
2018-07-16T22:44:44.060Z,10.27
2018-07-16T22:49:47.410Z,10.57
2018-07-16T22:54:50.767Z,13.23
2018-07-16T22:59:54.069Z,10.93
2018-07-16T23:04:57.359Z,12.20
2018-07-16T23:10:00.640Z,11.77
2018-07-16T23:15:03.677Z,12.37
2018-07-16T23:20:06.998Z,14.60
2018-07-16T23:25:09.997Z,14.07
2018-07-16T23:30:13.274Z,15.80
2018-07-16T23:35:17.227Z,15.73
2018-07-16T23:40:20.507Z,16.33
2018-07-16T23:45:23.789Z,15.50
2018-07-16T23:50:27.201Z,15.10
2018-07-16T23:55:30.128Z,15.37
